Ivanhoe, Virginia
Current Conditions -  °F | °C
As of 5:35 AM on Sunday 21 Dec 2014 (Local Time) from KHLX Reporting Station
Overcast Overcast  
Wind Chill: 34°   Ceiling: 500
Heat Index: 34°   Visibility: 10mi
Dew Point: 31°   Wind: 0mph
Humidity: 91%   Direction: NA
Pressure: 30.17"   Gusts: NA
Location:  36.84°N, 80.97°W
Report Text: KHLX 211035Z AUTO 00000KT 10SM BKN005 OVC032 01/00 A3017 RMK AO2 T00101003
Loading
Personal Weather Stations






























Interactive Weather Map New forecast layout! Learn more

10-Day Weather Forecast

Advertisements
Track Severe Weather on mobile